# Tabular Observed and Forecast Hydrograph Information
#
# Location: Mill Creek - Los Molinos (MLMC1)
#
# File Generation Time: 05/08/2026 at 09:26 AM PDT
# Data Interval: 1 Hour
#
# Most Recent Date & Time of Maximum Observed: 05/07/2026 at 09:00 AM PDT
# Maximum Observed Stage: 3.10 Feet
# Maximum Observed Flow: 385 cfs
#
# Earliest Date & Time of Maximum Forecast: 05/08/2026 at 10:00 AM PDT
# Maximum Forecast Stage: 3.04 Feet
# Maximum Forecast Flow: 368 cfs
#
# OBSERVED
#
# Date & Time (Local) Stage (Feet) Flow (cfs) Trend Observed Status
# ---------------------------------------------------------------------------------
05/03/2026 09 AM PDT 3.03 365 Not Applicable
05/03/2026 10 AM PDT 3.03 365 0 Not Applicable
05/03/2026 11 AM PDT 3.03 365 0 Not Applicable
05/03/2026 12 PM PDT 3.03 365 0 Not Applicable
05/03/2026 01 PM PDT 3.03 365 0 Not Applicable
05/03/2026 02 PM PDT 3.02 362 - Not Applicable
05/03/2026 03 PM PDT 3.01 359 - Not Applicable
05/03/2026 04 PM PDT 3.01 359 0 Not Applicable
05/03/2026 05 PM PDT 3.00 356 - Not Applicable
05/03/2026 06 PM PDT 3.01 359 + Not Applicable
05/03/2026 07 PM PDT 3.02 362 + Not Applicable
05/03/2026 08 PM PDT 3.05 370 + Not Applicable
05/03/2026 09 PM PDT 3.03 365 - Not Applicable
05/03/2026 10 PM PDT 3.03 365 0 Not Applicable
05/03/2026 11 PM PDT 3.04 368 + Not Applicable
05/04/2026 12 AM PDT 3.10 385 + Not Applicable
05/04/2026 01 AM PDT 3.09 382 - Not Applicable
05/04/2026 02 AM PDT 3.06 373 - Not Applicable
05/04/2026 03 AM PDT 3.05 370 - Not Applicable
05/04/2026 04 AM PDT 3.04 368 - Not Applicable
05/04/2026 05 AM PDT 3.04 368 0 Not Applicable
05/04/2026 06 AM PDT 3.04 368 0 Not Applicable
05/04/2026 07 AM PDT 3.05 370 + Not Applicable
05/04/2026 08 AM PDT 3.06 373 + Not Applicable
05/04/2026 09 AM PDT 3.06 373 0 Not Applicable
05/04/2026 10 AM PDT 3.06 373 0 Not Applicable
05/04/2026 11 AM PDT 3.06 373 0 Not Applicable
05/04/2026 12 PM PDT 3.05 370 - Not Applicable
05/04/2026 01 PM PDT 3.04 368 - Not Applicable
05/04/2026 02 PM PDT 3.03 365 - Not Applicable
05/04/2026 03 PM PDT 3.03 365 0 Not Applicable
05/04/2026 04 PM PDT 3.02 362 - Not Applicable
05/04/2026 05 PM PDT 3.02 362 0 Not Applicable
05/04/2026 06 PM PDT 3.01 359 - Not Applicable
05/04/2026 07 PM PDT 3.01 359 0 Not Applicable
05/04/2026 08 PM PDT 3.00 356 - Not Applicable
05/04/2026 09 PM PDT 3.00 356 0 Not Applicable
05/04/2026 10 PM PDT 3.00 356 0 Not Applicable
05/04/2026 11 PM PDT 3.00 356 0 Not Applicable
05/05/2026 12 AM PDT 3.00 356 0 Not Applicable
05/05/2026 01 AM PDT 3.00 356 0 Not Applicable
05/05/2026 02 AM PDT 2.99 353 - Not Applicable
05/05/2026 03 AM PDT 3.00 356 + Not Applicable
05/05/2026 04 AM PDT 3.00 356 0 Not Applicable
05/05/2026 05 AM PDT 3.02 362 + Not Applicable
05/05/2026 06 AM PDT 3.04 368 + Not Applicable
05/05/2026 07 AM PDT 3.04 368 0 Not Applicable
05/05/2026 08 AM PDT 3.04 368 0 Not Applicable
05/05/2026 09 AM PDT 3.04 368 0 Not Applicable
05/05/2026 10 AM PDT 3.04 368 0 Not Applicable
05/05/2026 11 AM PDT 3.04 368 0 Not Applicable
05/05/2026 12 PM PDT 3.03 365 - Not Applicable
05/05/2026 01 PM PDT 3.04 368 + Not Applicable
05/05/2026 02 PM PDT 3.04 368 0 Not Applicable
05/05/2026 03 PM PDT 3.03 365 - Not Applicable
05/05/2026 04 PM PDT 3.03 365 0 Not Applicable
05/05/2026 05 PM PDT 3.03 365 0 Not Applicable
05/05/2026 06 PM PDT 3.02 362 - Not Applicable
05/05/2026 07 PM PDT 3.02 362 0 Not Applicable
05/05/2026 08 PM PDT 3.01 359 - Not Applicable
05/05/2026 09 PM PDT 3.01 359 0 Not Applicable
05/05/2026 10 PM PDT 3.00 356 - Not Applicable
05/05/2026 11 PM PDT 2.99 353 - Not Applicable
05/06/2026 12 AM PDT 2.99 353 0 Not Applicable
05/06/2026 01 AM PDT 2.98 350 - Not Applicable
05/06/2026 02 AM PDT 2.98 350 0 Not Applicable
05/06/2026 03 AM PDT 3.00 356 + Not Applicable
05/06/2026 04 AM PDT 3.01 359 + Not Applicable
05/06/2026 05 AM PDT 3.04 368 + Not Applicable
05/06/2026 06 AM PDT 3.07 376 + Not Applicable
05/06/2026 07 AM PDT 3.09 382 + Not Applicable
05/06/2026 08 AM PDT 3.09 382 0 Not Applicable
05/06/2026 09 AM PDT 3.09 382 0 Not Applicable
05/06/2026 10 AM PDT 3.08 379 - Not Applicable
05/06/2026 11 AM PDT 3.07 376 - Not Applicable
05/06/2026 12 PM PDT 3.06 373 - Not Applicable
05/06/2026 01 PM PDT 3.05 370 - Not Applicable
05/06/2026 02 PM PDT 3.05 370 0 Not Applicable
05/06/2026 03 PM PDT 3.04 368 - Not Applicable
05/06/2026 04 PM PDT 3.03 365 - Not Applicable
05/06/2026 05 PM PDT 3.03 365 0 Not Applicable
05/06/2026 06 PM PDT 3.02 362 - Not Applicable
05/06/2026 07 PM PDT 3.01 359 - Not Applicable
05/06/2026 08 PM PDT 3.01 359 0 Not Applicable
05/06/2026 09 PM PDT 3.00 356 - Not Applicable
05/06/2026 10 PM PDT 2.99 353 - Not Applicable
05/06/2026 11 PM PDT 2.98 350 - Not Applicable
05/07/2026 12 AM PDT 2.97 347 - Not Applicable
05/07/2026 01 AM PDT 2.96 345 - Not Applicable
05/07/2026 02 AM PDT 2.97 347 + Not Applicable
05/07/2026 03 AM PDT 2.98 350 + Not Applicable
05/07/2026 04 AM PDT 3.02 362 + Not Applicable
05/07/2026 05 AM PDT 3.06 373 + Not Applicable
05/07/2026 06 AM PDT 3.09 382 + Not Applicable
05/07/2026 07 AM PDT 3.10 385 + Not Applicable
05/07/2026 08 AM PDT 3.10 385 0 Not Applicable
05/07/2026 09 AM PDT 3.10 385 0 Not Applicable
05/07/2026 10 AM PDT 3.08 379 - Not Applicable
05/07/2026 11 AM PDT 3.07 376 - Not Applicable
05/07/2026 12 PM PDT 3.06 373 - Not Applicable
05/07/2026 01 PM PDT 3.05 370 - Not Applicable
05/07/2026 02 PM PDT 3.04 368 - Not Applicable
05/07/2026 03 PM PDT 3.03 365 - Not Applicable
05/07/2026 04 PM PDT 3.03 365 0 Not Applicable
05/07/2026 05 PM PDT 3.01 359 - Not Applicable
05/07/2026 06 PM PDT 3.01 359 0 Not Applicable
05/07/2026 07 PM PDT 3.00 356 - Not Applicable
05/07/2026 08 PM PDT 3.00 356 0 Not Applicable
05/07/2026 09 PM PDT 2.98 350 - Not Applicable
05/07/2026 10 PM PDT 2.97 347 - Not Applicable
05/07/2026 11 PM PDT 2.96 345 - Not Applicable
05/08/2026 12 AM PDT 2.95 342 - Not Applicable
05/08/2026 01 AM PDT 2.95 342 0 Not Applicable
05/08/2026 02 AM PDT 2.95 342 0 Not Applicable
05/08/2026 03 AM PDT 2.96 345 + Not Applicable
05/08/2026 04 AM PDT 2.99 353 + Not Applicable
05/08/2026 05 AM PDT 3.02 362 + Not Applicable
05/08/2026 06 AM PDT 3.04 368 + Not Applicable
05/08/2026 07 AM PDT 3.04 368 0 Not Applicable
05/08/2026 08 AM PDT 3.04 368 0 Not Applicable
05/08/2026 09 AM PDT 3.04 368 0 Not Applicable
#
# FORECAST
#
# Date & Time (Local) Stage (Feet) Flow (cfs) Trend Forecast Status
# ---------------------------------------------------------------------------------
05/08/2026 10 AM PDT 3.04 368 Not Applicable
05/08/2026 11 AM PDT 3.04 368 0 Not Applicable
05/08/2026 12 PM PDT 3.04 368 0 Not Applicable
05/08/2026 01 PM PDT 3.03 365 - Not Applicable
05/08/2026 02 PM PDT 3.03 365 0 Not Applicable
05/08/2026 03 PM PDT 3.02 362 - Not Applicable
05/08/2026 04 PM PDT 3.02 362 0 Not Applicable
05/08/2026 05 PM PDT 3.01 359 - Not Applicable
05/08/2026 06 PM PDT 3.00 356 - Not Applicable
05/08/2026 07 PM PDT 3.00 356 0 Not Applicable
05/08/2026 08 PM PDT 3.00 356 0 Not Applicable
05/08/2026 09 PM PDT 2.99 353 - Not Applicable
05/08/2026 10 PM PDT 2.99 353 0 Not Applicable
05/08/2026 11 PM PDT 3.00 356 + Not Applicable
05/09/2026 12 AM PDT 3.00 356 0 Not Applicable
05/09/2026 01 AM PDT 3.00 356 0 Not Applicable
05/09/2026 02 AM PDT 3.00 356 0 Not Applicable
05/09/2026 03 AM PDT 3.01 359 + Not Applicable
05/09/2026 04 AM PDT 3.01 359 0 Not Applicable
05/09/2026 05 AM PDT 3.01 359 0 Not Applicable
05/09/2026 06 AM PDT 3.02 362 + Not Applicable
05/09/2026 07 AM PDT 3.02 362 0 Not Applicable
05/09/2026 08 AM PDT 3.02 362 0 Not Applicable
05/09/2026 09 AM PDT 3.02 362 0 Not Applicable
05/09/2026 10 AM PDT 3.02 362 0 Not Applicable
05/09/2026 11 AM PDT 3.02 362 0 Not Applicable
05/09/2026 12 PM PDT 3.01 359 - Not Applicable
05/09/2026 01 PM PDT 3.01 359 0 Not Applicable
05/09/2026 02 PM PDT 3.00 356 - Not Applicable
05/09/2026 03 PM PDT 3.00 356 0 Not Applicable
05/09/2026 04 PM PDT 3.00 356 0 Not Applicable
05/09/2026 05 PM PDT 2.99 353 - Not Applicable
05/09/2026 06 PM PDT 2.99 353 0 Not Applicable
05/09/2026 07 PM PDT 2.98 350 - Not Applicable
05/09/2026 08 PM PDT 2.98 350 0 Not Applicable
05/09/2026 09 PM PDT 2.98 350 0 Not Applicable
05/09/2026 10 PM PDT 2.99 353 + Not Applicable
05/09/2026 11 PM PDT 3.00 356 + Not Applicable
05/10/2026 12 AM PDT 3.00 356 0 Not Applicable
05/10/2026 01 AM PDT 3.01 359 + Not Applicable
05/10/2026 02 AM PDT 3.02 362 + Not Applicable
05/10/2026 03 AM PDT 3.02 362 0 Not Applicable
05/10/2026 04 AM PDT 3.03 365 + Not Applicable
05/10/2026 05 AM PDT 3.03 365 0 Not Applicable
05/10/2026 06 AM PDT 3.04 368 + Not Applicable
05/10/2026 07 AM PDT 3.04 368 0 Not Applicable
05/10/2026 08 AM PDT 3.04 368 0 Not Applicable
05/10/2026 09 AM PDT 3.04 368 0 Not Applicable
05/10/2026 10 AM PDT 3.04 368 0 Not Applicable
05/10/2026 11 AM PDT 3.04 368 0 Not Applicable
05/10/2026 12 PM PDT 3.04 368 0 Not Applicable
05/10/2026 01 PM PDT 3.03 365 - Not Applicable
05/10/2026 02 PM PDT 3.03 365 0 Not Applicable
05/10/2026 03 PM PDT 3.02 362 - Not Applicable
05/10/2026 04 PM PDT 3.02 362 0 Not Applicable
05/10/2026 05 PM PDT 3.02 362 0 Not Applicable
05/10/2026 06 PM PDT 3.01 359 - Not Applicable
05/10/2026 07 PM PDT 3.01 359 0 Not Applicable
05/10/2026 08 PM PDT 3.01 359 0 Not Applicable
05/10/2026 09 PM PDT 3.01 359 0 Not Applicable
05/10/2026 10 PM PDT 3.01 359 0 Not Applicable
05/10/2026 11 PM PDT 3.02 362 + Not Applicable
05/11/2026 12 AM PDT 3.02 362 0 Not Applicable
05/11/2026 01 AM PDT 3.03 365 + Not Applicable
05/11/2026 02 AM PDT 3.03 365 0 Not Applicable
05/11/2026 03 AM PDT 3.03 365 0 Not Applicable
05/11/2026 04 AM PDT 3.04 368 + Not Applicable
05/11/2026 05 AM PDT 3.04 368 0 Not Applicable
05/11/2026 06 AM PDT 3.04 368 0 Not Applicable
05/11/2026 07 AM PDT 3.04 368 0 Not Applicable
05/11/2026 08 AM PDT 3.04 368 0 Not Applicable
05/11/2026 09 AM PDT 3.04 368 0 Not Applicable
05/11/2026 10 AM PDT 3.04 368 0 Not Applicable
05/11/2026 11 AM PDT 3.03 365 - Not Applicable
05/11/2026 12 PM PDT 3.03 365 0 Not Applicable
05/11/2026 01 PM PDT 3.02 362 - Not Applicable
05/11/2026 02 PM PDT 3.02 362 0 Not Applicable
05/11/2026 03 PM PDT 3.01 359 - Not Applicable
05/11/2026 04 PM PDT 3.01 359 0 Not Applicable
05/11/2026 05 PM PDT 3.00 356 - Not Applicable
05/11/2026 06 PM PDT 3.00 356 0 Not Applicable
05/11/2026 07 PM PDT 3.00 356 0 Not Applicable
05/11/2026 08 PM PDT 3.00 356 0 Not Applicable
05/11/2026 09 PM PDT 3.00 356 0 Not Applicable
05/11/2026 10 PM PDT 3.00 356 0 Not Applicable
05/11/2026 11 PM PDT 3.01 359 + Not Applicable
05/12/2026 12 AM PDT 3.01 359 0 Not Applicable
05/12/2026 01 AM PDT 3.02 362 + Not Applicable
05/12/2026 02 AM PDT 3.02 362 0 Not Applicable
05/12/2026 03 AM PDT 3.02 362 0 Not Applicable
05/12/2026 04 AM PDT 3.02 362 0 Not Applicable
05/12/2026 05 AM PDT 3.03 365 + Not Applicable
05/12/2026 06 AM PDT 3.03 365 0 Not Applicable
05/12/2026 07 AM PDT 3.03 365 0 Not Applicable
05/12/2026 08 AM PDT 3.03 365 0 Not Applicable
05/12/2026 09 AM PDT 3.03 365 0 Not Applicable
05/12/2026 10 AM PDT 3.02 362 - Not Applicable
05/12/2026 11 AM PDT 3.02 362 0 Not Applicable
05/12/2026 12 PM PDT 3.02 362 0 Not Applicable
05/12/2026 01 PM PDT 3.01 359 - Not Applicable
05/12/2026 02 PM PDT 3.00 356 - Not Applicable
05/12/2026 03 PM PDT 3.00 356 0 Not Applicable
05/12/2026 04 PM PDT 3.00 356 0 Not Applicable
05/12/2026 05 PM PDT 2.99 353 - Not Applicable
05/12/2026 06 PM PDT 2.99 353 0 Not Applicable
05/12/2026 07 PM PDT 2.99 353 0 Not Applicable
05/12/2026 08 PM PDT 2.99 353 0 Not Applicable
05/12/2026 09 PM PDT 2.99 353 0 Not Applicable
05/12/2026 10 PM PDT 2.99 353 0 Not Applicable
05/12/2026 11 PM PDT 2.99 353 0 Not Applicable
05/13/2026 12 AM PDT 3.00 356 + Not Applicable
05/13/2026 01 AM PDT 3.00 356 0 Not Applicable
05/13/2026 02 AM PDT 3.00 356 0 Not Applicable
05/13/2026 03 AM PDT 3.00 356 0 Not Applicable
05/13/2026 04 AM PDT 3.00 356 0 Not Applicable
05/13/2026 05 AM PDT 3.01 359 + Not Applicable
#
# NOTE 1: Stages are rounded to the nearest hundredth (.01) of a foot.
# NOTE 2: Flows are rounded to the nearest (1) cfs.
# NOTE 3: Trends are determined using hourly change in unrounded stage and flow.
# NOTE 4: Maximum Values are determined using unrounded stage and flow.
|